sensor_id;sensor_type;location;lat;lon;timestamp;P1;durP1;ratioP1;P2;durP2;ratioP2
39322;SDS011;25036;53.638;10.134;2023-03-01T00:00:54;15.38;;;11.85;;
39322;SDS011;25036;53.638;10.134;2023-03-01T00:01:54;14.95;;;11.55;;
39322;SDS011;25036;53.638;10.134;2023-03-01T00:02:54;14.97;;;11.13;;
39322;SDS011;25036;53.638;10.134;2023-03-01T00:03:55;16.23;;;11.95;;
39322;SDS011;25036;53.638;10.134;2023-03-01T00:04:55;15.73;;;11.48;;
39322;SDS011;25036;53.638;10.134;2023-03-01T00:05:56;13.68;;;11.00;;
39322;SDS011;25036;53.638;10.134;2023-03-01T00:06:56;13.27;;;10.73;;
39322;SDS011;25036;53.638;10.134;2023-03-01T00:07:56;15.20;;;11.45;;
39322;SDS011;25036;53.638;10.134;2023-03-01T00:08:56;13.57;;;10.57;;
39322;SDS011;25036;53.638;10.134;2023-03-01T00:09:56;13.70;;;10.77;;
39322;SDS011;25036;53.638;10.134;2023-03-01T00:11:01;13.23;;;10.47;;
39322;SDS011;25036;53.638;10.134;2023-03-01T00:12:01;14.65;;;11.35;;
39322;SDS011;25036;53.638;10.134;2023-03-01T00:13:02;13.07;;;11.00;;
39322;SDS011;25036;53.638;10.134;2023-03-01T00:14:02;17.08;;;11.13;;
39322;SDS011;25036;53.638;10.134;2023-03-01T00:15:04;14.32;;;10.90;;
39322;SDS011;25036;53.638;10.134;2023-03-01T00:16:10;16.05;;;11.50;;
39322;SDS011;25036;53.638;10.134;2023-03-01T00:17:11;11.73;;;10.07;;
39322;SDS011;25036;53.638;10.134;2023-03-01T00:18:11;10.65;;;9.45;;
39322;SDS011;25036;53.638;10.134;2023-03-01T00:19:15;14.60;;;11.50;;
39322;SDS011;25036;53.638;10.134;2023-03-01T00:20:16;16.77;;;11.35;;
39322;SDS011;25036;53.638;10.134;2023-03-01T00:21:17;13.48;;;10.15;;
39322;SDS011;25036;53.638;10.134;2023-03-01T00:22:17;12.38;;;10.73;;
39322;SDS011;25036;53.638;10.134;2023-03-01T00:23:17;15.43;;;11.07;;
39322;SDS011;25036;53.638;10.134;2023-03-01T00:24:18;15.30;;;11.98;;
39322;SDS011;25036;53.638;10.134;2023-03-01T00:25:18;13.23;;;10.63;;
39322;SDS011;25036;53.638;10.134;2023-03-01T00:26:18;13.93;;;10.53;;
39322;SDS011;25036;53.638;10.134;2023-03-01T00:27:19;13.57;;;10.48;;
39322;SDS011;25036;53.638;10.134;2023-03-01T00:28:19;12.77;;;10.50;;
39322;SDS011;25036;53.638;10.134;2023-03-01T00:29:19;12.38;;;9.75;;
39322;SDS011;25036;53.638;10.134;2023-03-01T00:30:19;14.20;;;10.47;;
39322;SDS011;25036;53.638;10.134;2023-03-01T00:31:21;11.60;;;9.63;;
39322;SDS011;25036;53.638;10.134;2023-03-01T00:32:22;12.18;;;9.90;;
39322;SDS011;25036;53.638;10.134;2023-03-01T00:33:22;10.83;;;9.63;;
39322;SDS011;25036;53.638;10.134;2023-03-01T00:34:22;12.67;;;10.07;;
39322;SDS011;25036;53.638;10.134;2023-03-01T00:35:22;11.30;;;9.90;;
39322;SDS011;25036;53.638;10.134;2023-03-01T00:36:23;12.20;;;10.30;;
39322;SDS011;25036;53.638;10.134;2023-03-01T00:37:23;14.27;;;9.48;;
39322;SDS011;25036;53.638;10.134;2023-03-01T00:38:24;14.80;;;9.80;;
39322;SDS011;25036;53.638;10.134;2023-03-01T00:39:24;10.53;;;9.50;;
39322;SDS011;25036;53.638;10.134;2023-03-01T00:40:24;12.50;;;9.97;;
39322;SDS011;25036;53.638;10.134;2023-03-01T00:41:25;13.10;;;10.57;;
39322;SDS011;25036;53.638;10.134;2023-03-01T00:42:26;12.13;;;9.65;;
39322;SDS011;25036;53.638;10.134;2023-03-01T00:43:26;11.03;;;9.27;;
39322;SDS011;25036;53.638;10.134;2023-03-01T00:44:26;11.17;;;9.10;;
39322;SDS011;25036;53.638;10.134;2023-03-01T00:45:28;11.23;;;9.23;;
39322;SDS011;25036;53.638;10.134;2023-03-01T00:46:29;12.20;;;10.07;;
39322;SDS011;25036;53.638;10.134;2023-03-01T00:47:30;11.38;;;9.93;;
39322;SDS011;25036;53.638;10.134;2023-03-01T00:48:30;11.93;;;10.37;;
39322;SDS011;25036;53.638;10.134;2023-03-01T00:49:30;15.90;;;10.55;;
39322;SDS011;25036;53.638;10.134;2023-03-01T00:50:30;12.60;;;10.10;;
39322;SDS011;25036;53.638;10.134;2023-03-01T00:51:31;12.40;;;10.07;;
39322;SDS011;25036;53.638;10.134;2023-03-01T00:52:31;11.63;;;10.43;;
39322;SDS011;25036;53.638;10.134;2023-03-01T00:53:31;12.40;;;9.87;;
39322;SDS011;25036;53.638;10.134;2023-03-01T00:54:32;13.38;;;10.30;;
39322;SDS011;25036;53.638;10.134;2023-03-01T00:55:32;13.17;;;11.53;;
39322;SDS011;25036;53.638;10.134;2023-03-01T00:56:32;13.53;;;11.20;;
39322;SDS011;25036;53.638;10.134;2023-03-01T00:57:32;14.07;;;10.77;;
39322;SDS011;25036;53.638;10.134;2023-03-01T00:58:33;12.85;;;10.10;;
39322;SDS011;25036;53.638;10.134;2023-03-01T00:59:33;14.32;;;10.63;;
39322;SDS011;25036;53.638;10.134;2023-03-01T01:00:34;13.57;;;10.70;;
39322;SDS011;25036;53.638;10.134;2023-03-01T01:01:35;12.67;;;11.27;;
39322;SDS011;25036;53.638;10.134;2023-03-01T01:02:35;18.80;;;10.93;;
39322;SDS011;25036;53.638;10.134;2023-03-01T01:03:35;12.23;;;10.30;;
39322;SDS011;25036;53.638;10.134;2023-03-01T01:04:35;13.53;;;10.40;;
39322;SDS011;25036;53.638;10.134;2023-03-01T01:05:35;11.33;;;9.87;;
39322;SDS011;25036;53.638;10.134;2023-03-01T01:06:37;11.95;;;10.27;;
39322;SDS011;25036;53.638;10.134;2023-03-01T01:07:37;13.57;;;10.30;;
39322;SDS011;25036;53.638;10.134;2023-03-01T01:08:38;11.68;;;10.18;;
39322;SDS011;25036;53.638;10.134;2023-03-01T01:09:38;14.07;;;9.47;;
39322;SDS011;25036;53.638;10.134;2023-03-01T01:10:38;12.30;;;10.23;;
39322;SDS011;25036;53.638;10.134;2023-03-01T01:11:38;11.48;;;9.77;;
39322;SDS011;25036;53.638;10.134;2023-03-01T01:12:38;11.70;;;10.23;;
39322;SDS011;25036;53.638;10.134;2023-03-01T01:13:40;10.98;;;9.63;;
39322;SDS011;25036;53.638;10.134;2023-03-01T01:14:40;12.27;;;9.82;;
39322;SDS011;25036;53.638;10.134;2023-03-01T01:15:40;13.90;;;10.10;;
39322;SDS011;25036;53.638;10.134;2023-03-01T01:16:41;11.38;;;9.82;;
39322;SDS011;25036;53.638;10.134;2023-03-01T01:17:41;12.93;;;9.40;;
39322;SDS011;25036;53.638;10.134;2023-03-01T01:18:41;12.02;;;9.93;;
39322;SDS011;25036;53.638;10.134;2023-03-01T01:19:41;11.43;;;9.97;;
39322;SDS011;25036;53.638;10.134;2023-03-01T01:20:41;12.93;;;9.82;;
39322;SDS011;25036;53.638;10.134;2023-03-01T01:21:41;10.77;;;9.23;;
39322;SDS011;25036;53.638;10.134;2023-03-01T01:22:45;14.23;;;10.30;;
39322;SDS011;25036;53.638;10.134;2023-03-01T01:23:45;12.52;;;9.80;;
39322;SDS011;25036;53.638;10.134;2023-03-01T01:24:45;12.85;;;9.63;;
39322;SDS011;25036;53.638;10.134;2023-03-01T01:25:45;11.35;;;9.63;;
39322;SDS011;25036;53.638;10.134;2023-03-01T01:26:46;11.97;;;9.60;;
39322;SDS011;25036;53.638;10.134;2023-03-01T01:27:46;11.48;;;8.98;;
39322;SDS011;25036;53.638;10.134;2023-03-01T01:28:46;11.57;;;9.50;;
39322;SDS011;25036;53.638;10.134;2023-03-01T01:29:47;13.55;;;9.80;;
39322;SDS011;25036;53.638;10.134;2023-03-01T01:30:47;11.23;;;9.55;;
39322;SDS011;25036;53.638;10.134;2023-03-01T01:31:47;12.18;;;8.90;;
39322;SDS011;25036;53.638;10.134;2023-03-01T01:32:47;10.43;;;9.13;;
39322;SDS011;25036;53.638;10.134;2023-03-01T01:33:48;10.60;;;9.50;;
39322;SDS011;25036;53.638;10.134;2023-03-01T01:34:48;11.25;;;9.10;;
39322;SDS011;25036;53.638;10.134;2023-03-01T01:35:48;14.52;;;9.57;;
39322;SDS011;25036;53.638;10.134;2023-03-01T01:36:52;11.70;;;9.13;;
39322;SDS011;25036;53.638;10.134;2023-03-01T01:37:55;12.25;;;9.07;;
39322;SDS011;25036;53.638;10.134;2023-03-01T01:38:55;10.60;;;8.77;;
39322;SDS011;25036;53.638;10.134;2023-03-01T01:39:57;9.73;;;8.73;;
39322;SDS011;25036;53.638;10.134;2023-03-01T01:40:57;9.43;;;8.20;;
39322;SDS011;25036;53.638;10.134;2023-03-01T01:41:57;10.13;;;8.52;;
39322;SDS011;25036;53.638;10.134;2023-03-01T01:42:58;13.53;;;8.97;;
39322;SDS011;25036;53.638;10.134;2023-03-01T01:46:28;11.35;;;9.18;;
39322;SDS011;25036;53.638;10.134;2023-03-01T01:47:29;10.30;;;8.55;;
39322;SDS011;25036;53.638;10.134;2023-03-01T01:48:34;11.00;;;8.45;;
39322;SDS011;25036;53.638;10.134;2023-03-01T01:49:41;12.48;;;9.40;;
39322;SDS011;25036;53.638;10.134;2023-03-01T01:50:42;13.20;;;8.68;;
39322;SDS011;25036;53.638;10.134;2023-03-01T01:51:45;10.38;;;8.20;;
39322;SDS011;25036;53.638;10.134;2023-03-01T01:52:48;11.75;;;8.98;;
39322;SDS011;25036;53.638;10.134;2023-03-01T01:53:51;19.23;;;9.20;;
39322;SDS011;25036;53.638;10.134;2023-03-01T01:54:57;11.30;;;8.55;;
39322;SDS011;25036;53.638;10.134;2023-03-01T01:55:58;11.15;;;9.07;;
39322;SDS011;25036;53.638;10.134;2023-03-01T01:57:00;11.52;;;9.23;;
39322;SDS011;25036;53.638;10.134;2023-03-01T01:58:03;13.07;;;9.57;;
39322;SDS011;25036;53.638;10.134;2023-03-01T01:59:04;11.35;;;9.45;;
39322;SDS011;25036;53.638;10.134;2023-03-01T02:00:06;12.23;;;9.00;;
39322;SDS011;25036;53.638;10.134;2023-03-01T02:01:06;11.90;;;9.38;;
39322;SDS011;25036;53.638;10.134;2023-03-01T02:02:07;9.77;;;8.73;;
39322;SDS011;25036;53.638;10.134;2023-03-01T02:03:11;10.25;;;8.70;;
39322;SDS011;25036;53.638;10.134;2023-03-01T02:04:12;11.48;;;8.90;;
39322;SDS011;25036;53.638;10.134;2023-03-01T02:05:14;12.32;;;8.23;;
39322;SDS011;25036;53.638;10.134;2023-03-01T02:06:31;10.77;;;9.30;;
39322;SDS011;25036;53.638;10.134;2023-03-01T02:07:33;12.07;;;9.35;;
39322;SDS011;25036;53.638;10.134;2023-03-01T02:08:35;11.77;;;8.95;;
39322;SDS011;25036;53.638;10.134;2023-03-01T02:09:36;11.02;;;8.82;;
39322;SDS011;25036;53.638;10.134;2023-03-01T02:10:36;11.35;;;9.13;;
39322;SDS011;25036;53.638;10.134;2023-03-01T02:11:37;12.18;;;9.60;;
39322;SDS011;25036;53.638;10.134;2023-03-01T02:12:37;10.13;;;9.07;;
39322;SDS011;25036;53.638;10.134;2023-03-01T02:13:38;12.18;;;8.98;;
39322;SDS011;25036;53.638;10.134;2023-03-01T02:14:38;12.30;;;8.53;;
39322;SDS011;25036;53.638;10.134;2023-03-01T02:15:39;10.40;;;8.73;;
39322;SDS011;25036;53.638;10.134;2023-03-01T02:16:40;11.48;;;8.80;;
39322;SDS011;25036;53.638;10.134;2023-03-01T02:17:41;10.70;;;8.68;;
39322;SDS011;25036;53.638;10.134;2023-03-01T02:18:41;9.63;;;8.43;;
39322;SDS011;25036;53.638;10.134;2023-03-01T02:21:04;13.32;;;9.10;;
39322;SDS011;25036;53.638;10.134;2023-03-01T02:22:27;10.10;;;8.30;;
39322;SDS011;25036;53.638;10.134;2023-03-01T02:23:27;10.80;;;8.10;;
39322;SDS011;25036;53.638;10.134;2023-03-01T02:26:05;10.68;;;8.15;;
39322;SDS011;25036;53.638;10.134;2023-03-01T02:27:07;11.73;;;7.85;;
39322;SDS011;25036;53.638;10.134;2023-03-01T02:28:18;10.27;;;7.75;;
39322;SDS011;25036;53.638;10.134;2023-03-01T02:30:19;10.37;;;7.70;;
39322;SDS011;25036;53.638;10.134;2023-03-01T02:31:20;9.15;;;7.30;;
39322;SDS011;25036;53.638;10.134;2023-03-01T02:32:40;10.25;;;8.20;;
39322;SDS011;25036;53.638;10.134;2023-03-01T02:33:41;9.15;;;7.63;;
39322;SDS011;25036;53.638;10.134;2023-03-01T02:34:42;8.60;;;7.70;;
39322;SDS011;25036;53.638;10.134;2023-03-01T02:35:43;8.40;;;7.50;;
39322;SDS011;25036;53.638;10.134;2023-03-01T02:36:45;8.80;;;7.90;;
39322;SDS011;25036;53.638;10.134;2023-03-01T02:37:45;8.75;;;7.28;;
39322;SDS011;25036;53.638;10.134;2023-03-01T02:38:47;10.40;;;8.00;;
39322;SDS011;25036;53.638;10.134;2023-03-01T02:39:48;8.73;;;7.43;;
39322;SDS011;25036;53.638;10.134;2023-03-01T02:40:49;8.38;;;6.75;;
39322;SDS011;25036;53.638;10.134;2023-03-01T02:41:51;8.35;;;6.90;;
39322;SDS011;25036;53.638;10.134;2023-03-01T02:42:53;8.88;;;6.60;;
39322;SDS011;25036;53.638;10.134;2023-03-01T02:43:54;9.45;;;6.53;;
39322;SDS011;25036;53.638;10.134;2023-03-01T02:44:55;9.68;;;6.93;;
39322;SDS011;25036;53.638;10.134;2023-03-01T02:45:57;8.18;;;6.57;;
39322;SDS011;25036;53.638;10.134;2023-03-01T02:46:57;10.45;;;6.97;;
39322;SDS011;25036;53.638;10.134;2023-03-01T02:48:00;8.02;;;7.03;;
39322;SDS011;25036;53.638;10.134;2023-03-01T02:49:00;9.03;;;7.10;;
39322;SDS011;25036;53.638;10.134;2023-03-01T02:50:01;9.33;;;7.53;;
39322;SDS011;25036;53.638;10.134;2023-03-01T02:52:05;8.03;;;6.77;;
39322;SDS011;25036;53.638;10.134;2023-03-01T02:53:16;10.82;;;7.43;;
39322;SDS011;25036;53.638;10.134;2023-03-01T02:55:17;9.87;;;7.60;;
39322;SDS011;25036;53.638;10.134;2023-03-01T02:56:17;8.63;;;7.38;;
39322;SDS011;25036;53.638;10.134;2023-03-01T02:57:18;8.80;;;7.43;;
39322;SDS011;25036;53.638;10.134;2023-03-01T02:58:19;10.20;;;7.82;;
39322;SDS011;25036;53.638;10.134;2023-03-01T02:59:19;9.32;;;7.32;;
39322;SDS011;25036;53.638;10.134;2023-03-01T03:00:21;9.05;;;7.72;;
39322;SDS011;25036;53.638;10.134;2023-03-01T03:01:22;11.60;;;7.95;;
39322;SDS011;25036;53.638;10.134;2023-03-01T03:02:29;10.03;;;7.63;;
39322;SDS011;25036;53.638;10.134;2023-03-01T03:03:38;10.40;;;8.20;;
39322;SDS011;25036;53.638;10.134;2023-03-01T03:04:38;10.50;;;8.47;;
39322;SDS011;25036;53.638;10.134;2023-03-01T03:05:38;11.17;;;8.67;;
39322;SDS011;25036;53.638;10.134;2023-03-01T03:06:39;10.43;;;8.52;;
39322;SDS011;25036;53.638;10.134;2023-03-01T03:07:41;9.48;;;7.93;;
39322;SDS011;25036;53.638;10.134;2023-03-01T03:08:41;9.32;;;8.07;;
39322;SDS011;25036;53.638;10.134;2023-03-01T03:09:41;10.53;;;8.43;;
39322;SDS011;25036;53.638;10.134;2023-03-01T03:10:42;10.93;;;8.23;;
39322;SDS011;25036;53.638;10.134;2023-03-01T03:11:43;10.98;;;8.35;;
39322;SDS011;25036;53.638;10.134;2023-03-01T03:12:43;10.85;;;8.65;;
39322;SDS011;25036;53.638;10.134;2023-03-01T03:13:43;10.30;;;8.30;;
39322;SDS011;25036;53.638;10.134;2023-03-01T03:14:47;9.70;;;8.00;;
39322;SDS011;25036;53.638;10.134;2023-03-01T03:15:48;11.10;;;8.50;;
39322;SDS011;25036;53.638;10.134;2023-03-01T03:16:49;10.40;;;8.38;;
39322;SDS011;25036;53.638;10.134;2023-03-01T03:17:49;10.50;;;8.32;;
39322;SDS011;25036;53.638;10.134;2023-03-01T03:18:50;8.77;;;7.82;;
39322;SDS011;25036;53.638;10.134;2023-03-01T03:19:50;11.73;;;8.55;;
39322;SDS011;25036;53.638;10.134;2023-03-01T03:20:51;11.45;;;8.55;;
39322;SDS011;25036;53.638;10.134;2023-03-01T03:21:52;10.90;;;8.50;;
39322;SDS011;25036;53.638;10.134;2023-03-01T03:22:54;11.50;;;8.18;;
39322;SDS011;25036;53.638;10.134;2023-03-01T03:23:54;10.82;;;8.65;;
39322;SDS011;25036;53.638;10.134;2023-03-01T03:24:54;9.73;;;8.10;;
39322;SDS011;25036;53.638;10.134;2023-03-01T03:25:55;11.10;;;8.47;;
39322;SDS011;25036;53.638;10.134;2023-03-01T03:26:55;10.27;;;7.97;;
39322;SDS011;25036;53.638;10.134;2023-03-01T03:27:55;11.83;;;8.10;;
39322;SDS011;25036;53.638;10.134;2023-03-01T03:28:59;9.80;;;8.00;;
39322;SDS011;25036;53.638;10.134;2023-03-01T03:29:59;10.70;;;8.80;;
39322;SDS011;25036;53.638;10.134;2023-03-01T03:30:59;10.60;;;8.00;;
39322;SDS011;25036;53.638;10.134;2023-03-01T03:32:03;11.68;;;8.20;;
39322;SDS011;25036;53.638;10.134;2023-03-01T03:33:03;10.87;;;7.97;;
39322;SDS011;25036;53.638;10.134;2023-03-01T03:34:03;11.67;;;8.50;;
39322;SDS011;25036;53.638;10.134;2023-03-01T03:35:04;10.27;;;8.30;;
39322;SDS011;25036;53.638;10.134;2023-03-01T03:36:09;9.75;;;7.68;;
39322;SDS011;25036;53.638;10.134;2023-03-01T03:37:12;10.05;;;7.97;;
39322;SDS011;25036;53.638;10.134;2023-03-01T03:38:32;10.48;;;8.18;;
39322;SDS011;25036;53.638;10.134;2023-03-01T03:39:33;11.13;;;8.77;;
39322;SDS011;25036;53.638;10.134;2023-03-01T03:40:38;10.32;;;8.05;;
39322;SDS011;25036;53.638;10.134;2023-03-01T03:41:39;10.63;;;9.20;;
39322;SDS011;25036;53.638;10.134;2023-03-01T03:42:39;12.17;;;8.70;;
39322;SDS011;25036;53.638;10.134;2023-03-01T03:43:39;13.17;;;7.53;;
39322;SDS011;25036;53.638;10.134;2023-03-01T03:44:40;10.77;;;8.02;;
39322;SDS011;25036;53.638;10.134;2023-03-01T03:45:40;12.20;;;8.20;;
39322;SDS011;25036;53.638;10.134;2023-03-01T03:46:40;11.77;;;8.57;;
39322;SDS011;25036;53.638;10.134;2023-03-01T03:47:41;9.23;;;7.47;;
39322;SDS011;25036;53.638;10.134;2023-03-01T03:48:42;9.32;;;7.78;;
39322;SDS011;25036;53.638;10.134;2023-03-01T03:49:43;9.07;;;7.30;;
39322;SDS011;25036;53.638;10.134;2023-03-01T03:50:47;9.30;;;7.43;;
39322;SDS011;25036;53.638;10.134;2023-03-01T03:51:48;9.30;;;7.43;;
39322;SDS011;25036;53.638;10.134;2023-03-01T03:52:48;9.73;;;7.57;;
39322;SDS011;25036;53.638;10.134;2023-03-01T03:53:48;10.00;;;8.47;;
39322;SDS011;25036;53.638;10.134;2023-03-01T03:54:48;10.15;;;7.97;;
39322;SDS011;25036;53.638;10.134;2023-03-01T03:55:48;10.53;;;7.93;;
39322;SDS011;25036;53.638;10.134;2023-03-01T03:56:49;8.50;;;7.28;;
39322;SDS011;25036;53.638;10.134;2023-03-01T03:57:49;9.27;;;7.67;;
39322;SDS011;25036;53.638;10.134;2023-03-01T03:58:53;10.68;;;8.48;;
39322;SDS011;25036;53.638;10.134;2023-03-01T03:59:54;9.17;;;7.20;;
39322;SDS011;25036;53.638;10.134;2023-03-01T04:00:55;9.37;;;7.90;;
39322;SDS011;25036;53.638;10.134;2023-03-01T04:01:58;13.25;;;8.77;;
39322;SDS011;25036;53.638;10.134;2023-03-01T04:02:58;11.95;;;8.88;;
39322;SDS011;25036;53.638;10.134;2023-03-01T04:03:58;10.73;;;8.03;;
39322;SDS011;25036;53.638;10.134;2023-03-01T04:05:04;12.52;;;8.45;;
39322;SDS011;25036;53.638;10.134;2023-03-01T04:06:04;11.00;;;8.05;;
39322;SDS011;25036;53.638;10.134;2023-03-01T04:07:05;11.40;;;8.45;;
39322;SDS011;25036;53.638;10.134;2023-03-01T04:08:05;10.37;;;8.30;;
39322;SDS011;25036;53.638;10.134;2023-03-01T04:09:09;10.82;;;9.07;;
39322;SDS011;25036;53.638;10.134;2023-03-01T04:10:10;12.97;;;9.50;;
39322;SDS011;25036;53.638;10.134;2023-03-01T04:11:11;11.57;;;8.60;;
39322;SDS011;25036;53.638;10.134;2023-03-01T04:12:26;9.93;;;8.38;;
39322;SDS011;25036;53.638;10.134;2023-03-01T04:13:26;10.93;;;8.70;;
39322;SDS011;25036;53.638;10.134;2023-03-01T04:14:26;11.10;;;8.07;;
39322;SDS011;25036;53.638;10.134;2023-03-01T04:15:27;13.77;;;9.27;;
39322;SDS011;25036;53.638;10.134;2023-03-01T04:16:27;12.25;;;8.73;;
39322;SDS011;25036;53.638;10.134;2023-03-01T04:17:27;11.77;;;8.98;;
39322;SDS011;25036;53.638;10.134;2023-03-01T04:18:27;14.07;;;9.73;;
39322;SDS011;25036;53.638;10.134;2023-03-01T04:19:27;12.30;;;9.00;;
39322;SDS011;25036;53.638;10.134;2023-03-01T04:20:28;13.10;;;9.47;;
39322;SDS011;25036;53.638;10.134;2023-03-01T04:21:29;12.00;;;8.95;;
39322;SDS011;25036;53.638;10.134;2023-03-01T04:22:29;14.32;;;9.07;;
39322;SDS011;25036;53.638;10.134;2023-03-01T04:23:29;12.27;;;9.60;;
39322;SDS011;25036;53.638;10.134;2023-03-01T04:24:29;13.87;;;10.33;;
39322;SDS011;25036;53.638;10.134;2023-03-01T04:25:30;12.43;;;9.53;;
39322;SDS011;25036;53.638;10.134;2023-03-01T04:26:30;10.57;;;8.63;;
39322;SDS011;25036;53.638;10.134;2023-03-01T04:27:30;11.70;;;8.57;;
39322;SDS011;25036;53.638;10.134;2023-03-01T04:28:31;11.47;;;8.30;;
39322;SDS011;25036;53.638;10.134;2023-03-01T04:29:35;12.43;;;8.70;;
39322;SDS011;25036;53.638;10.134;2023-03-01T04:30:36;11.10;;;9.02;;
39322;SDS011;25036;53.638;10.134;2023-03-01T04:31:36;12.43;;;8.45;;
39322;SDS011;25036;53.638;10.134;2023-03-01T04:32:37;11.50;;;8.57;;
39322;SDS011;25036;53.638;10.134;2023-03-01T04:33:37;10.30;;;8.43;;
39322;SDS011;25036;53.638;10.134;2023-03-01T04:34:37;13.97;;;9.57;;
39322;SDS011;25036;53.638;10.134;2023-03-01T04:35:37;11.13;;;8.43;;
39322;SDS011;25036;53.638;10.134;2023-03-01T04:36:38;11.00;;;9.10;;
39322;SDS011;25036;53.638;10.134;2023-03-01T04:37:39;12.07;;;9.02;;
39322;SDS011;25036;53.638;10.134;2023-03-01T04:38:42;13.63;;;8.52;;
39322;SDS011;25036;53.638;10.134;2023-03-01T04:39:42;12.32;;;8.35;;
39322;SDS011;25036;53.638;10.134;2023-03-01T04:40:47;11.07;;;8.63;;
39322;SDS011;25036;53.638;10.134;2023-03-01T04:41:47;10.20;;;8.18;;
39322;SDS011;25036;53.638;10.134;2023-03-01T04:42:47;12.10;;;8.80;;
39322;SDS011;25036;53.638;10.134;2023-03-01T04:43:47;11.07;;;7.67;;
39322;SDS011;25036;53.638;10.134;2023-03-01T04:44:48;12.05;;;8.23;;
39322;SDS011;25036;53.638;10.134;2023-03-01T04:45:51;10.73;;;8.80;;
39322;SDS011;25036;53.638;10.134;2023-03-01T04:46:51;12.20;;;8.33;;
39322;SDS011;25036;53.638;10.134;2023-03-01T04:47:51;11.43;;;8.50;;
39322;SDS011;25036;53.638;10.134;2023-03-01T04:48:52;10.77;;;8.55;;
39322;SDS011;25036;53.638;10.134;2023-03-01T04:49:52;9.90;;;8.10;;
39322;SDS011;25036;53.638;10.134;2023-03-01T04:50:52;7.80;;;7.00;;
39322;SDS011;25036;53.638;10.134;2023-03-01T04:51:52;9.97;;;7.50;;
39322;SDS011;25036;53.638;10.134;2023-03-01T04:52:52;9.53;;;7.47;;
39322;SDS011;25036;53.638;10.134;2023-03-01T04:53:53;9.77;;;7.82;;
39322;SDS011;25036;53.638;10.134;2023-03-01T04:54:53;10.00;;;7.47;;
39322;SDS011;25036;53.638;10.134;2023-03-01T04:55:53;10.13;;;7.83;;
39322;SDS011;25036;53.638;10.134;2023-03-01T04:56:54;9.43;;;7.55;;
39322;SDS011;25036;53.638;10.134;2023-03-01T04:57:54;12.90;;;8.05;;
39322;SDS011;25036;53.638;10.134;2023-03-01T04:58:54;10.13;;;7.03;;
39322;SDS011;25036;53.638;10.134;2023-03-01T04:59:54;9.80;;;7.25;;
39322;SDS011;25036;53.638;10.134;2023-03-01T05:00:55;8.57;;;7.27;;
39322;SDS011;25036;53.638;10.134;2023-03-01T05:01:55;7.95;;;6.70;;
39322;SDS011;25036;53.638;10.134;2023-03-01T05:02:57;7.82;;;6.63;;
39322;SDS011;25036;53.638;10.134;2023-03-01T05:03:57;9.02;;;7.13;;
39322;SDS011;25036;53.638;10.134;2023-03-01T05:05:02;9.02;;;6.40;;
39322;SDS011;25036;53.638;10.134;2023-03-01T05:06:02;8.05;;;6.97;;
39322;SDS011;25036;53.638;10.134;2023-03-01T05:07:03;9.40;;;7.05;;
39322;SDS011;25036;53.638;10.134;2023-03-01T05:08:04;8.03;;;6.63;;
39322;SDS011;25036;53.638;10.134;2023-03-01T05:09:04;8.82;;;6.90;;
39322;SDS011;25036;53.638;10.134;2023-03-01T05:10:05;10.48;;;6.82;;
39322;SDS011;25036;53.638;10.134;2023-03-01T05:11:05;8.10;;;6.97;;
39322;SDS011;25036;53.638;10.134;2023-03-01T05:12:05;8.60;;;7.47;;
39322;SDS011;25036;53.638;10.134;2023-03-01T05:13:06;8.38;;;6.88;;
39322;SDS011;25036;53.638;10.134;2023-03-01T05:14:06;10.43;;;6.72;;
39322;SDS011;25036;53.638;10.134;2023-03-01T05:15:07;8.00;;;6.20;;
39322;SDS011;25036;53.638;10.134;2023-03-01T05:16:08;9.32;;;6.55;;
39322;SDS011;25036;53.638;10.134;2023-03-01T05:17:11;7.93;;;5.95;;
39322;SDS011;25036;53.638;10.134;2023-03-01T05:18:11;8.30;;;6.50;;
39322;SDS011;25036;53.638;10.134;2023-03-01T05:19:11;7.93;;;6.87;;
39322;SDS011;25036;53.638;10.134;2023-03-01T05:20:15;8.40;;;6.47;;
39322;SDS011;25036;53.638;10.134;2023-03-01T05:21:15;8.77;;;6.40;;
39322;SDS011;25036;53.638;10.134;2023-03-01T05:22:18;8.43;;;6.38;;
39322;SDS011;25036;53.638;10.134;2023-03-01T05:23:19;7.82;;;6.18;;
39322;SDS011;25036;53.638;10.134;2023-03-01T05:24:19;7.20;;;6.23;;
39322;SDS011;25036;53.638;10.134;2023-03-01T05:25:19;8.73;;;6.40;;
39322;SDS011;25036;53.638;10.134;2023-03-01T05:26:21;9.38;;;6.43;;
39322;SDS011;25036;53.638;10.134;2023-03-01T05:27:21;9.10;;;6.40;;
39322;SDS011;25036;53.638;10.134;2023-03-01T05:28:22;7.78;;;6.63;;
39322;SDS011;25036;53.638;10.134;2023-03-01T05:29:23;7.60;;;6.13;;
39322;SDS011;25036;53.638;10.134;2023-03-01T05:30:26;7.85;;;6.18;;
39322;SDS011;25036;53.638;10.134;2023-03-01T05:31:27;10.32;;;6.57;;
39322;SDS011;25036;53.638;10.134;2023-03-01T05:32:27;8.40;;;6.47;;
39322;SDS011;25036;53.638;10.134;2023-03-01T05:33:30;8.20;;;6.32;;
39322;SDS011;25036;53.638;10.134;2023-03-01T05:34:32;6.80;;;6.07;;
39322;SDS011;25036;53.638;10.134;2023-03-01T05:35:32;8.75;;;6.13;;
39322;SDS011;25036;53.638;10.134;2023-03-01T05:36:33;8.00;;;6.38;;
39322;SDS011;25036;53.638;10.134;2023-03-01T05:37:34;8.45;;;6.55;;
39322;SDS011;25036;53.638;10.134;2023-03-01T05:38:35;7.50;;;6.60;;
39322;SDS011;25036;53.638;10.134;2023-03-01T05:39:36;8.95;;;6.80;;
39322;SDS011;25036;53.638;10.134;2023-03-01T05:40:36;8.27;;;6.60;;
39322;SDS011;25036;53.638;10.134;2023-03-01T05:41:36;7.40;;;6.13;;
39322;SDS011;25036;53.638;10.134;2023-03-01T05:42:36;7.10;;;6.20;;
39322;SDS011;25036;53.638;10.134;2023-03-01T05:43:36;7.90;;;6.77;;
39322;SDS011;25036;53.638;10.134;2023-03-01T05:44:36;8.93;;;7.10;;
39322;SDS011;25036;53.638;10.134;2023-03-01T05:45:37;8.70;;;6.95;;
39322;SDS011;25036;53.638;10.134;2023-03-01T05:46:38;8.02;;;7.13;;
39322;SDS011;25036;53.638;10.134;2023-03-01T05:47:38;8.70;;;6.30;;
39322;SDS011;25036;53.638;10.134;2023-03-01T05:48:43;9.25;;;6.70;;
39322;SDS011;25036;53.638;10.134;2023-03-01T05:49:43;8.65;;;6.65;;
39322;SDS011;25036;53.638;10.134;2023-03-01T05:50:43;8.43;;;6.80;;
39322;SDS011;25036;53.638;10.134;2023-03-01T05:51:47;9.27;;;7.13;;
39322;SDS011;25036;53.638;10.134;2023-03-01T05:52:51;9.75;;;7.60;;
39322;SDS011;25036;53.638;10.134;2023-03-01T05:53:51;10.70;;;7.70;;
39322;SDS011;25036;53.638;10.134;2023-03-01T05:54:52;9.98;;;8.38;;
39322;SDS011;25036;53.638;10.134;2023-03-01T05:55:52;9.07;;;7.13;;
39322;SDS011;25036;53.638;10.134;2023-03-01T05:56:52;9.55;;;7.35;;
39322;SDS011;25036;53.638;10.134;2023-03-01T05:57:53;10.47;;;8.23;;
39322;SDS011;25036;53.638;10.134;2023-03-01T05:58:53;12.17;;;9.17;;
39322;SDS011;25036;53.638;10.134;2023-03-01T05:59:53;11.37;;;9.10;;
39322;SDS011;25036;53.638;10.134;2023-03-01T06:00:53;12.10;;;9.23;;
39322;SDS011;25036;53.638;10.134;2023-03-01T06:01:53;11.40;;;9.02;;
39322;SDS011;25036;53.638;10.134;2023-03-01T06:02:54;10.65;;;8.90;;
39322;SDS011;25036;53.638;10.134;2023-03-01T06:03:54;13.15;;;8.30;;
39322;SDS011;25036;53.638;10.134;2023-03-01T06:04:55;9.02;;;7.35;;
39322;SDS011;25036;53.638;10.134;2023-03-01T06:05:56;9.30;;;8.33;;
39322;SDS011;25036;53.638;10.134;2023-03-01T06:06:56;10.50;;;8.38;;
39322;SDS011;25036;53.638;10.134;2023-03-01T06:07:59;12.30;;;8.30;;